sensor_id;sensor_type;location;lat;lon;timestamp;P1;durP1;ratioP1;P2;durP2;ratioP2
966;SDS011;56108;48.730;9.304;2024-02-26T00:00:07;2.92;;;2.30;;
966;SDS011;56108;48.730;9.304;2024-02-26T00:02:21;1.90;;;1.80;;
966;SDS011;56108;48.730;9.304;2024-02-26T00:04:29;3.17;;;2.05;;
966;SDS011;56108;48.730;9.304;2024-02-26T00:06:37;2.80;;;1.88;;
966;SDS011;56108;48.730;9.304;2024-02-26T00:08:46;3.63;;;2.10;;
966;SDS011;56108;48.730;9.304;2024-02-26T00:10:54;3.28;;;2.20;;
966;SDS011;56108;48.730;9.304;2024-02-26T00:13:02;2.72;;;2.35;;
966;SDS011;56108;48.730;9.304;2024-02-26T00:15:10;1.80;;;1.70;;
966;SDS011;56108;48.730;9.304;2024-02-26T00:17:21;2.08;;;1.83;;
966;SDS011;56108;48.730;9.304;2024-02-26T00:19:29;2.83;;;1.95;;
966;SDS011;56108;48.730;9.304;2024-02-26T00:21:34;1.77;;;1.67;;
966;SDS011;56108;48.730;9.304;2024-02-26T00:23:43;1.90;;;1.80;;
966;SDS011;56108;48.730;9.304;2024-02-26T00:25:51;2.50;;;2.30;;
966;SDS011;56108;48.730;9.304;2024-02-26T00:27:59;2.30;;;2.10;;
966;SDS011;56108;48.730;9.304;2024-02-26T00:30:07;2.00;;;1.90;;
966;SDS011;56108;48.730;9.304;2024-02-26T00:32:17;1.77;;;1.67;;
966;SDS011;56108;48.730;9.304;2024-02-26T00:34:27;1.98;;;1.88;;
966;SDS011;56108;48.730;9.304;2024-02-26T00:36:35;2.03;;;1.48;;
966;SDS011;56108;48.730;9.304;2024-02-26T00:38:43;2.42;;;2.20;;
966;SDS011;56108;48.730;9.304;2024-02-26T00:40:55;2.28;;;2.08;;
966;SDS011;56108;48.730;9.304;2024-02-26T00:43:03;2.35;;;2.15;;
966;SDS011;56108;48.730;9.304;2024-02-26T00:45:11;1.92;;;1.83;;
966;SDS011;56108;48.730;9.304;2024-02-26T00:47:21;2.38;;;2.17;;
966;SDS011;56108;48.730;9.304;2024-02-26T00:49:32;3.28;;;2.13;;
966;SDS011;56108;48.730;9.304;2024-02-26T00:51:40;1.73;;;1.63;;
966;SDS011;56108;48.730;9.304;2024-02-26T00:53:48;2.30;;;2.10;;
966;SDS011;56108;48.730;9.304;2024-02-26T00:55:56;2.13;;;1.88;;
966;SDS011;56108;48.730;9.304;2024-02-26T00:58:05;4.00;;;2.42;;
966;SDS011;56108;48.730;9.304;2024-02-26T01:00:13;3.05;;;1.55;;
966;SDS011;56108;48.730;9.304;2024-02-26T01:02:23;2.47;;;1.42;;
966;SDS011;56108;48.730;9.304;2024-02-26T01:04:34;1.85;;;1.75;;
966;SDS011;56108;48.730;9.304;2024-02-26T01:06:42;1.85;;;1.75;;
966;SDS011;56108;48.730;9.304;2024-02-26T01:08:50;1.98;;;1.75;;
966;SDS011;56108;48.730;9.304;2024-02-26T01:10:58;1.80;;;1.70;;
966;SDS011;56108;48.730;9.304;2024-02-26T01:13:06;2.03;;;1.83;;
966;SDS011;56108;48.730;9.304;2024-02-26T01:15:15;1.80;;;1.70;;
966;SDS011;56108;48.730;9.304;2024-02-26T01:17:23;3.78;;;2.30;;
966;SDS011;56108;48.730;9.304;2024-02-26T01:19:34;2.85;;;2.65;;
966;SDS011;56108;48.730;9.304;2024-02-26T01:21:42;1.85;;;1.75;;
966;SDS011;56108;48.730;9.304;2024-02-26T01:23:50;2.00;;;1.88;;
966;SDS011;56108;48.730;9.304;2024-02-26T01:25:59;2.67;;;2.03;;
966;SDS011;56108;48.730;9.304;2024-02-26T01:28:07;1.70;;;1.60;;
966;SDS011;56108;48.730;9.304;2024-02-26T01:30:15;2.17;;;1.90;;
966;SDS011;56108;48.730;9.304;2024-02-26T01:32:24;2.38;;;2.20;;
966;SDS011;56108;48.730;9.304;2024-02-26T01:34:29;1.55;;;1.50;;
966;SDS011;56108;48.730;9.304;2024-02-26T01:36:40;2.13;;;1.80;;
966;SDS011;56108;48.730;9.304;2024-02-26T01:38:48;2.55;;;2.33;;
966;SDS011;56108;48.730;9.304;2024-02-26T01:40:56;2.47;;;2.28;;
966;SDS011;56108;48.730;9.304;2024-02-26T01:43:04;1.60;;;1.50;;
966;SDS011;56108;48.730;9.304;2024-02-26T01:45:12;1.80;;;1.70;;
966;SDS011;56108;48.730;9.304;2024-02-26T01:47:26;1.98;;;1.88;;
966;SDS011;56108;48.730;9.304;2024-02-26T01:49:35;2.00;;;1.90;;
966;SDS011;56108;48.730;9.304;2024-02-26T01:51:47;1.77;;;1.67;;
966;SDS011;56108;48.730;9.304;2024-02-26T01:53:55;2.45;;;2.22;;
966;SDS011;56108;48.730;9.304;2024-02-26T01:56:03;2.40;;;2.30;;
966;SDS011;56108;48.730;9.304;2024-02-26T01:58:09;2.42;;;2.15;;
966;SDS011;56108;48.730;9.304;2024-02-26T02:00:18;4.60;;;2.90;;
966;SDS011;56108;48.730;9.304;2024-02-26T02:02:25;2.50;;;2.35;;
966;SDS011;56108;48.730;9.304;2024-02-26T02:04:33;3.00;;;2.80;;
966;SDS011;56108;48.730;9.304;2024-02-26T02:06:39;3.22;;;3.03;;
966;SDS011;56108;48.730;9.304;2024-02-26T02:08:54;2.70;;;2.50;;
966;SDS011;56108;48.730;9.304;2024-02-26T02:11:02;2.83;;;2.60;;
966;SDS011;56108;48.730;9.304;2024-02-26T02:13:11;2.30;;;2.20;;
966;SDS011;56108;48.730;9.304;2024-02-26T02:15:19;2.30;;;2.20;;
966;SDS011;56108;48.730;9.304;2024-02-26T02:17:28;2.88;;;2.58;;
966;SDS011;56108;48.730;9.304;2024-02-26T02:19:33;3.08;;;2.67;;
966;SDS011;56108;48.730;9.304;2024-02-26T02:21:44;2.25;;;2.05;;
966;SDS011;56108;48.730;9.304;2024-02-26T02:23:52;1.98;;;1.75;;
966;SDS011;56108;48.730;9.304;2024-02-26T02:26:00;2.63;;;2.15;;
966;SDS011;56108;48.730;9.304;2024-02-26T02:28:08;1.80;;;1.70;;
966;SDS011;56108;48.730;9.304;2024-02-26T02:30:16;2.17;;;2.05;;
966;SDS011;56108;48.730;9.304;2024-02-26T02:32:25;3.85;;;2.65;;
966;SDS011;56108;48.730;9.304;2024-02-26T02:34:34;5.60;;;2.30;;
966;SDS011;56108;48.730;9.304;2024-02-26T02:36:51;4.13;;;2.85;;
966;SDS011;56108;48.730;9.304;2024-02-26T02:39:00;2.22;;;2.03;;
966;SDS011;56108;48.730;9.304;2024-02-26T02:41:08;3.13;;;2.50;;
966;SDS011;56108;48.730;9.304;2024-02-26T02:43:16;2.30;;;1.75;;
966;SDS011;56108;48.730;9.304;2024-02-26T02:45:21;2.58;;;1.90;;
966;SDS011;56108;48.730;9.304;2024-02-26T02:47:29;2.08;;;1.88;;
966;SDS011;56108;48.730;9.304;2024-02-26T02:49:37;1.90;;;1.75;;
966;SDS011;56108;48.730;9.304;2024-02-26T02:51:45;2.10;;;1.65;;
966;SDS011;56108;48.730;9.304;2024-02-26T02:53:55;2.05;;;1.85;;
966;SDS011;56108;48.730;9.304;2024-02-26T02:56:04;3.63;;;2.72;;
966;SDS011;56108;48.730;9.304;2024-02-26T02:58:12;2.35;;;1.60;;
966;SDS011;56108;48.730;9.304;2024-02-26T03:00:21;1.50;;;1.50;;
966;SDS011;56108;48.730;9.304;2024-02-26T03:02:30;2.28;;;1.80;;
966;SDS011;56108;48.730;9.304;2024-02-26T03:04:35;2.25;;;2.13;;
966;SDS011;56108;48.730;9.304;2024-02-26T03:06:43;1.85;;;1.75;;
966;SDS011;56108;48.730;9.304;2024-02-26T03:08:49;3.45;;;1.98;;
966;SDS011;56108;48.730;9.304;2024-02-26T03:11:00;2.00;;;1.90;;
966;SDS011;56108;48.730;9.304;2024-02-26T03:13:08;2.25;;;1.75;;
966;SDS011;56108;48.730;9.304;2024-02-26T03:15:16;1.95;;;1.85;;
966;SDS011;56108;48.730;9.304;2024-02-26T03:17:25;1.80;;;1.70;;
966;SDS011;56108;48.730;9.304;2024-02-26T03:19:33;2.20;;;2.00;;
966;SDS011;56108;48.730;9.304;2024-02-26T03:21:41;2.50;;;2.30;;
966;SDS011;56108;48.730;9.304;2024-02-26T03:23:49;2.17;;;1.88;;
966;SDS011;56108;48.730;9.304;2024-02-26T03:25:57;1.80;;;1.70;;
966;SDS011;56108;48.730;9.304;2024-02-26T03:28:06;2.78;;;2.25;;
966;SDS011;56108;48.730;9.304;2024-02-26T03:30:14;3.17;;;2.92;;
966;SDS011;56108;48.730;9.304;2024-02-26T03:32:22;2.28;;;2.03;;
966;SDS011;56108;48.730;9.304;2024-02-26T03:34:27;2.72;;;2.45;;
966;SDS011;56108;48.730;9.304;2024-02-26T03:36:36;3.55;;;3.08;;
966;SDS011;56108;48.730;9.304;2024-02-26T03:38:44;2.83;;;2.63;;
966;SDS011;56108;48.730;9.304;2024-02-26T03:40:49;5.95;;;2.35;;
966;SDS011;56108;48.730;9.304;2024-02-26T03:42:57;2.47;;;2.10;;
966;SDS011;56108;48.730;9.304;2024-02-26T03:45:09;2.63;;;2.30;;
966;SDS011;56108;48.730;9.304;2024-02-26T03:47:17;3.40;;;2.50;;
966;SDS011;56108;48.730;9.304;2024-02-26T03:49:25;2.80;;;2.40;;
966;SDS011;56108;48.730;9.304;2024-02-26T03:51:33;3.42;;;1.75;;
966;SDS011;56108;48.730;9.304;2024-02-26T03:53:42;2.05;;;1.80;;
966;SDS011;56108;48.730;9.304;2024-02-26T03:55:50;1.92;;;1.83;;
966;SDS011;56108;48.730;9.304;2024-02-26T03:57:59;1.88;;;1.77;;
966;SDS011;56108;48.730;9.304;2024-02-26T04:00:11;1.88;;;1.77;;
966;SDS011;56108;48.730;9.304;2024-02-26T04:02:20;2.45;;;1.95;;
966;SDS011;56108;48.730;9.304;2024-02-26T04:04:30;5.00;;;2.45;;
966;SDS011;56108;48.730;9.304;2024-02-26T04:06:43;2.90;;;2.20;;
966;SDS011;56108;48.730;9.304;2024-02-26T04:08:49;1.73;;;1.63;;
966;SDS011;56108;48.730;9.304;2024-02-26T04:10:57;1.92;;;1.83;;
966;SDS011;56108;48.730;9.304;2024-02-26T04:13:07;2.72;;;1.20;;
966;SDS011;56108;48.730;9.304;2024-02-26T04:15:18;3.95;;;2.35;;
966;SDS011;56108;48.730;9.304;2024-02-26T04:17:27;2.80;;;2.00;;
966;SDS011;56108;48.730;9.304;2024-02-26T04:19:35;2.25;;;1.88;;
966;SDS011;56108;48.730;9.304;2024-02-26T04:21:43;2.55;;;2.35;;
966;SDS011;56108;48.730;9.304;2024-02-26T04:23:48;2.58;;;2.33;;
966;SDS011;56108;48.730;9.304;2024-02-26T04:26:03;3.70;;;1.92;;
966;SDS011;56108;48.730;9.304;2024-02-26T04:28:12;2.72;;;2.53;;
966;SDS011;56108;48.730;9.304;2024-02-26T04:30:23;2.55;;;2.20;;
966;SDS011;56108;48.730;9.304;2024-02-26T04:32:31;2.13;;;2.03;;
966;SDS011;56108;48.730;9.304;2024-02-26T04:34:39;2.60;;;2.40;;
966;SDS011;56108;48.730;9.304;2024-02-26T04:36:47;1.65;;;1.55;;
966;SDS011;56108;48.730;9.304;2024-02-26T04:38:55;2.40;;;2.20;;
966;SDS011;56108;48.730;9.304;2024-02-26T04:41:04;5.28;;;3.72;;
966;SDS011;56108;48.730;9.304;2024-02-26T04:43:12;4.28;;;3.83;;
966;SDS011;56108;48.730;9.304;2024-02-26T04:45:23;4.32;;;2.92;;
966;SDS011;56108;48.730;9.304;2024-02-26T04:47:32;4.55;;;2.58;;
966;SDS011;56108;48.730;9.304;2024-02-26T04:49:40;3.17;;;2.53;;
966;SDS011;56108;48.730;9.304;2024-02-26T04:51:48;2.40;;;2.20;;
966;SDS011;56108;48.730;9.304;2024-02-26T04:53:57;3.20;;;2.90;;
966;SDS011;56108;48.730;9.304;2024-02-26T04:56:05;3.03;;;2.80;;
966;SDS011;56108;48.730;9.304;2024-02-26T04:58:11;3.85;;;2.90;;
966;SDS011;56108;48.730;9.304;2024-02-26T05:00:19;2.72;;;2.53;;
966;SDS011;56108;48.730;9.304;2024-02-26T05:02:30;3.15;;;2.80;;
966;SDS011;56108;48.730;9.304;2024-02-26T05:04:42;2.85;;;2.50;;
966;SDS011;56108;48.730;9.304;2024-02-26T05:06:51;3.40;;;3.10;;
966;SDS011;56108;48.730;9.304;2024-02-26T05:08:59;2.65;;;2.20;;
966;SDS011;56108;48.730;9.304;2024-02-26T05:11:08;2.85;;;2.55;;
966;SDS011;56108;48.730;9.304;2024-02-26T05:13:16;2.80;;;2.60;;
966;SDS011;56108;48.730;9.304;2024-02-26T05:15:24;5.40;;;2.67;;
966;SDS011;56108;48.730;9.304;2024-02-26T05:17:35;3.08;;;2.30;;
966;SDS011;56108;48.730;9.304;2024-02-26T05:19:43;2.60;;;2.20;;
966;SDS011;56108;48.730;9.304;2024-02-26T05:21:51;4.03;;;2.85;;
966;SDS011;56108;48.730;9.304;2024-02-26T05:23:59;3.30;;;3.00;;
966;SDS011;56108;48.730;9.304;2024-02-26T05:26:08;3.63;;;3.33;;
966;SDS011;56108;48.730;9.304;2024-02-26T05:28:16;3.72;;;2.85;;
966;SDS011;56108;48.730;9.304;2024-02-26T05:30:25;3.15;;;2.85;;
966;SDS011;56108;48.730;9.304;2024-02-26T05:32:36;3.17;;;2.88;;
966;SDS011;56108;48.730;9.304;2024-02-26T05:34:42;4.45;;;3.05;;
966;SDS011;56108;48.730;9.304;2024-02-26T05:36:50;3.83;;;3.47;;
966;SDS011;56108;48.730;9.304;2024-02-26T05:38:58;2.53;;;2.22;;
966;SDS011;56108;48.730;9.304;2024-02-26T05:41:03;2.70;;;2.50;;
966;SDS011;56108;48.730;9.304;2024-02-26T05:43:12;3.17;;;2.63;;
966;SDS011;56108;48.730;9.304;2024-02-26T05:45:22;2.90;;;2.70;;
966;SDS011;56108;48.730;9.304;2024-02-26T05:47:30;4.32;;;3.60;;
966;SDS011;56108;48.730;9.304;2024-02-26T05:49:42;2.72;;;2.53;;
966;SDS011;56108;48.730;9.304;2024-02-26T05:51:51;2.83;;;2.63;;
966;SDS011;56108;48.730;9.304;2024-02-26T05:53:56;3.58;;;3.03;;
966;SDS011;56108;48.730;9.304;2024-02-26T05:56:05;2.80;;;2.60;;
966;SDS011;56108;48.730;9.304;2024-02-26T05:58:14;5.00;;;2.75;;
966;SDS011;56108;48.730;9.304;2024-02-26T06:00:22;2.53;;;2.33;;
966;SDS011;56108;48.730;9.304;2024-02-26T06:02:30;3.05;;;2.63;;
966;SDS011;56108;48.730;9.304;2024-02-26T06:04:38;2.70;;;2.40;;
966;SDS011;56108;48.730;9.304;2024-02-26T06:06:49;3.42;;;2.92;;
966;SDS011;56108;48.730;9.304;2024-02-26T06:08:58;2.40;;;2.30;;
966;SDS011;56108;48.730;9.304;2024-02-26T06:11:06;4.00;;;3.22;;
966;SDS011;56108;48.730;9.304;2024-02-26T06:13:15;3.58;;;2.47;;
966;SDS011;56108;48.730;9.304;2024-02-26T06:15:23;3.03;;;2.72;;
966;SDS011;56108;48.730;9.304;2024-02-26T06:17:31;3.20;;;2.90;;
966;SDS011;56108;48.730;9.304;2024-02-26T06:19:36;3.08;;;2.88;;
966;SDS011;56108;48.730;9.304;2024-02-26T06:21:45;3.00;;;2.80;;
966;SDS011;56108;48.730;9.304;2024-02-26T06:23:56;3.70;;;3.35;;
966;SDS011;56108;48.730;9.304;2024-02-26T06:26:04;3.75;;;3.05;;
966;SDS011;56108;48.730;9.304;2024-02-26T06:28:12;3.45;;;2.75;;
966;SDS011;56108;48.730;9.304;2024-02-26T06:30:20;3.85;;;2.67;;
966;SDS011;56108;48.730;9.304;2024-02-26T06:32:28;3.08;;;2.88;;
966;SDS011;56108;48.730;9.304;2024-02-26T06:34:36;4.43;;;3.25;;
966;SDS011;56108;48.730;9.304;2024-02-26T06:36:46;3.55;;;3.25;;
966;SDS011;56108;48.730;9.304;2024-02-26T06:38:57;3.50;;;3.20;;
966;SDS011;56108;48.730;9.304;2024-02-26T06:41:05;3.22;;;2.95;;
966;SDS011;56108;48.730;9.304;2024-02-26T06:43:13;4.00;;;3.60;;
966;SDS011;56108;48.730;9.304;2024-02-26T06:45:19;3.72;;;3.42;;
966;SDS011;56108;48.730;9.304;2024-02-26T06:47:27;4.85;;;3.60;;
966;SDS011;56108;48.730;9.304;2024-02-26T06:49:35;5.68;;;3.45;;
966;SDS011;56108;48.730;9.304;2024-02-26T06:51:43;3.40;;;3.10;;
966;SDS011;56108;48.730;9.304;2024-02-26T06:53:51;3.33;;;2.80;;
966;SDS011;56108;48.730;9.304;2024-02-26T06:56:03;4.68;;;3.35;;
966;SDS011;56108;48.730;9.304;2024-02-26T06:58:12;5.53;;;4.22;;
966;SDS011;56108;48.730;9.304;2024-02-26T07:00:20;6.47;;;2.95;;
966;SDS011;56108;48.730;9.304;2024-02-26T07:02:28;3.08;;;2.80;;
966;SDS011;56108;48.730;9.304;2024-02-26T07:04:36;4.25;;;3.90;;
966;SDS011;56108;48.730;9.304;2024-02-26T07:06:45;3.80;;;3.35;;
966;SDS011;56108;48.730;9.304;2024-02-26T07:08:53;4.28;;;3.25;;
966;SDS011;56108;48.730;9.304;2024-02-26T07:11:04;4.03;;;3.63;;
966;SDS011;56108;48.730;9.304;2024-02-26T07:13:15;5.20;;;3.17;;
966;SDS011;56108;48.730;9.304;2024-02-26T07:15:23;3.92;;;3.63;;
966;SDS011;56108;48.730;9.304;2024-02-26T07:17:31;5.28;;;3.30;;
966;SDS011;56108;48.730;9.304;2024-02-26T07:19:39;4.60;;;4.07;;
966;SDS011;56108;48.730;9.304;2024-02-26T07:21:48;3.83;;;3.28;;
966;SDS011;56108;48.730;9.304;2024-02-26T07:23:56;4.63;;;3.55;;
966;SDS011;56108;48.730;9.304;2024-02-26T07:26:07;4.47;;;4.05;;
966;SDS011;56108;48.730;9.304;2024-02-26T07:28:16;6.10;;;4.65;;
966;SDS011;56108;48.730;9.304;2024-02-26T07:30:24;4.35;;;3.95;;
966;SDS011;56108;48.730;9.304;2024-02-26T07:32:32;3.80;;;3.20;;
966;SDS011;56108;48.730;9.304;2024-02-26T07:34:41;3.90;;;3.50;;
966;SDS011;56108;48.730;9.304;2024-02-26T07:36:50;6.15;;;3.90;;
966;SDS011;56108;48.730;9.304;2024-02-26T07:38:58;4.82;;;3.85;;
966;SDS011;56108;48.730;9.304;2024-02-26T07:41:09;6.40;;;3.72;;
966;SDS011;56108;48.730;9.304;2024-02-26T07:43:17;4.07;;;3.67;;
966;SDS011;56108;48.730;9.304;2024-02-26T07:45:23;5.60;;;4.00;;
966;SDS011;56108;48.730;9.304;2024-02-26T07:47:31;8.07;;;3.90;;
966;SDS011;56108;48.730;9.304;2024-02-26T07:49:39;4.15;;;3.75;;
966;SDS011;56108;48.730;9.304;2024-02-26T07:51:47;6.85;;;3.80;;
966;SDS011;56108;48.730;9.304;2024-02-26T07:53:56;6.47;;;4.47;;
966;SDS011;56108;48.730;9.304;2024-02-26T07:56:04;3.90;;;3.47;;
966;SDS011;56108;48.730;9.304;2024-02-26T07:58:15;3.70;;;3.40;;
966;SDS011;56108;48.730;9.304;2024-02-26T08:00:23;5.10;;;4.45;;
966;SDS011;56108;48.730;9.304;2024-02-26T08:02:31;4.70;;;4.03;;
966;SDS011;56108;48.730;9.304;2024-02-26T08:04:39;3.95;;;3.58;;
966;SDS011;56108;48.730;9.304;2024-02-26T08:06:47;2.90;;;2.70;;
966;SDS011;56108;48.730;9.304;2024-02-26T08:08:55;3.47;;;3.03;;
966;SDS011;56108;48.730;9.304;2024-02-26T08:11:09;4.35;;;3.60;;
966;SDS011;56108;48.730;9.304;2024-02-26T08:13:24;5.70;;;4.15;;
966;SDS011;56108;48.730;9.304;2024-02-26T08:15:33;4.30;;;3.90;;
966;SDS011;56108;48.730;9.304;2024-02-26T08:17:44;5.90;;;4.05;;
966;SDS011;56108;48.730;9.304;2024-02-26T08:19:52;4.63;;;3.85;;
966;SDS011;56108;48.730;9.304;2024-02-26T08:22:01;12.05;;;4.90;;
966;SDS011;56108;48.730;9.304;2024-02-26T08:24:09;5.07;;;4.57;;
966;SDS011;56108;48.730;9.304;2024-02-26T08:26:17;4.35;;;3.95;;
966;SDS011;56108;48.730;9.304;2024-02-26T08:28:29;3.90;;;3.50;;
966;SDS011;56108;48.730;9.304;2024-02-26T08:30:38;5.10;;;3.92;;
966;SDS011;56108;48.730;9.304;2024-02-26T08:32:47;4.55;;;3.90;;
966;SDS011;56108;48.730;9.304;2024-02-26T08:34:56;6.25;;;4.00;;
966;SDS011;56108;48.730;9.304;2024-02-26T08:37:05;4.25;;;3.63;;
966;SDS011;56108;48.730;9.304;2024-02-26T08:39:11;6.57;;;3.80;;
966;SDS011;56108;48.730;9.304;2024-02-26T08:41:22;4.00;;;3.60;;
966;SDS011;56108;48.730;9.304;2024-02-26T08:43:33;4.40;;;3.47;;
966;SDS011;56108;48.730;9.304;2024-02-26T08:45:41;3.03;;;2.80;;
966;SDS011;56108;48.730;9.304;2024-02-26T08:47:49;4.95;;;3.67;;
966;SDS011;56108;48.730;9.304;2024-02-26T08:49:58;4.47;;;3.20;;
966;SDS011;56108;48.730;9.304;2024-02-26T08:52:07;4.05;;;3.25;;
966;SDS011;56108;48.730;9.304;2024-02-26T08:54:15;5.00;;;3.30;;
966;SDS011;56108;48.730;9.304;2024-02-26T08:56:24;3.47;;;3.17;;
966;SDS011;56108;48.730;9.304;2024-02-26T08:58:33;4.40;;;3.65;;
966;SDS011;56108;48.730;9.304;2024-02-26T09:00:41;3.92;;;3.40;;
966;SDS011;56108;48.730;9.304;2024-02-26T09:02:49;4.53;;;4.13;;
966;SDS011;56108;48.730;9.304;2024-02-26T09:04:57;7.28;;;3.90;;
966;SDS011;56108;48.730;9.304;2024-02-26T09:07:06;5.40;;;4.30;;
966;SDS011;56108;48.730;9.304;2024-02-26T09:09:14;4.00;;;3.38;;
966;SDS011;56108;48.730;9.304;2024-02-26T09:11:22;5.75;;;4.20;;
966;SDS011;56108;48.730;9.304;2024-02-26T09:13:33;5.30;;;3.65;;
966;SDS011;56108;48.730;9.304;2024-02-26T09:15:41;4.60;;;3.70;;
966;SDS011;56108;48.730;9.304;2024-02-26T09:17:50;4.35;;;3.95;;
966;SDS011;56108;48.730;9.304;2024-02-26T09:19:58;4.68;;;4.28;;
966;SDS011;56108;48.730;9.304;2024-02-26T09:22:07;4.90;;;4.38;;
966;SDS011;56108;48.730;9.304;2024-02-26T09:24:22;5.55;;;4.35;;
966;SDS011;56108;48.730;9.304;2024-02-26T09:26:30;3.97;;;3.58;;
966;SDS011;56108;48.730;9.304;2024-02-26T09:28:41;4.70;;;4.30;;
966;SDS011;56108;48.730;9.304;2024-02-26T09:30:49;4.03;;;3.67;;
966;SDS011;56108;48.730;9.304;2024-02-26T09:32:57;6.32;;;3.67;;
966;SDS011;56108;48.730;9.304;2024-02-26T09:35:10;4.53;;;3.28;;
966;SDS011;56108;48.730;9.304;2024-02-26T09:37:18;3.60;;;3.00;;
966;SDS011;56108;48.730;9.304;2024-02-26T09:39:26;3.40;;;3.10;;
966;SDS011;56108;48.730;9.304;2024-02-26T09:41:34;5.40;;;4.20;;
966;SDS011;56108;48.730;9.304;2024-02-26T09:43:43;3.78;;;3.47;;
966;SDS011;56108;48.730;9.304;2024-02-26T09:45:52;3.95;;;3.65;;
966;SDS011;56108;48.730;9.304;2024-02-26T09:48:05;4.40;;;4.00;;
966;SDS011;56108;48.730;9.304;2024-02-26T09:50:17;4.72;;;3.30;;
966;SDS011;56108;48.730;9.304;2024-02-26T09:52:28;3.85;;;3.30;;
966;SDS011;56108;48.730;9.304;2024-02-26T09:54:38;3.70;;;3.38;;
966;SDS011;56108;48.730;9.304;2024-02-26T09:56:56;3.28;;;2.97;;
966;SDS011;56108;48.730;9.304;2024-02-26T09:59:20;3.58;;;2.95;;
966;SDS011;56108;48.730;9.304;2024-02-26T10:01:30;4.90;;;3.20;;
966;SDS011;56108;48.730;9.304;2024-02-26T10:03:42;4.03;;;2.80;;
966;SDS011;56108;48.730;9.304;2024-02-26T10:05:53;3.40;;;2.75;;
966;SDS011;56108;48.730;9.304;2024-02-26T10:08:03;3.58;;;3.22;;
966;SDS011;56108;48.730;9.304;2024-02-26T10:10:12;4.65;;;3.35;;
966;SDS011;56108;48.730;9.304;2024-02-26T10:12:21;3.15;;;2.88;;
966;SDS011;56108;48.730;9.304;2024-02-26T10:14:33;5.93;;;3.70;;
966;SDS011;56108;48.730;9.304;2024-02-26T10:16:38;3.47;;;2.55;;
966;SDS011;56108;48.730;9.304;2024-02-26T10:18:48;3.55;;;3.25;;
966;SDS011;56108;48.730;9.304;2024-02-26T10:21:04;3.38;;;3.03;;
966;SDS011;56108;48.730;9.304;2024-02-26T10:23:12;3.10;;;2.90;;
966;SDS011;56108;48.730;9.304;2024-02-26T10:25:20;3.70;;;3.00;;
966;SDS011;56108;48.730;9.304;2024-02-26T10:27:30;3.53;;;2.40;;
966;SDS011;56108;48.730;9.304;2024-02-26T10:29:44;5.88;;;3.35;;
966;SDS011;56108;48.730;9.304;2024-02-26T10:31:52;5.18;;;2.63;;
966;SDS011;56108;48.730;9.304;2024-02-26T10:34:01;2.67;;;2.47;;
966;SDS011;56108;48.730;9.304;2024-02-26T10:36:10;3.08;;;2.72;;
966;SDS011;56108;48.730;9.304;2024-02-26T10:38:20;2.55;;;2.15;;
966;SDS011;56108;48.730;9.304;2024-02-26T10:40:28;2.67;;;2.47;;
966;SDS011;56108;48.730;9.304;2024-02-26T10:42:36;2.42;;;2.22;;
966;SDS011;56108;48.730;9.304;2024-02-26T10:44:47;3.13;;;2.72;;
966;SDS011;56108;48.730;9.304;2024-02-26T10:46:56;2.25;;;2.05;;
966;SDS011;56108;48.730;9.304;2024-02-26T10:49:04;2.40;;;1.88;;
966;SDS011;56108;48.730;9.304;2024-02-26T10:51:13;2.80;;;2.47;;
966;SDS011;56108;48.730;9.304;2024-02-26T10:53:22;2.20;;;2.00;;
966;SDS011;56108;48.730;9.304;2024-02-26T10:55:31;1.77;;;1.67;;
966;SDS011;56108;48.730;9.304;2024-02-26T10:57:42;5.78;;;2.30;;
966;SDS011;56108;48.730;9.304;2024-02-26T10:59:54;2.10;;;1.90;;
966;SDS011;56108;48.730;9.304;2024-02-26T11:02:04;1.73;;;1.63;;
966;SDS011;56108;48.730;9.304;2024-02-26T11:04:15;3.17;;;2.60;;
966;SDS011;56108;48.730;9.304;2024-02-26T11:06:24;4.38;;;2.60;;
966;SDS011;56108;48.730;9.304;2024-02-26T11:08:34;2.58;;;2.38;;
966;SDS011;56108;48.730;9.304;2024-02-26T11:10:45;5.03;;;2.35;;
966;SDS011;56108;48.730;9.304;2024-02-26T11:12:55;2.88;;;1.85;;
966;SDS011;56108;48.730;9.304;2024-02-26T11:15:10;3.08;;;2.25;;
966;SDS011;56108;48.730;9.304;2024-02-26T11:17:19;3.28;;;1.80;;
966;SDS011;56108;48.730;9.304;2024-02-26T11:19:31;2.97;;;2.67;;
966;SDS011;56108;48.730;9.304;2024-02-26T11:21:43;1.77;;;1.67;;
966;SDS011;56108;48.730;9.304;2024-02-26T11:23:52;3.80;;;2.50;;
966;SDS011;56108;48.730;9.304;2024-02-26T11:26:01;2.60;;;2.40;;
966;SDS011;56108;48.730;9.304;2024-02-26T11:28:12;2.25;;;2.05;;
966;SDS011;56108;48.730;9.304;2024-02-26T11:30:25;3.92;;;2.45;;
966;SDS011;56108;48.730;9.304;2024-02-26T11:32:36;2.47;;;2.00;;
966;SDS011;56108;48.730;9.304;2024-02-26T11:34:44;1.75;;;1.52;;
966;SDS011;56108;48.730;9.304;2024-02-26T11:36:53;2.60;;;1.80;;
966;SDS011;56108;48.730;9.304;2024-02-26T11:39:03;4.90;;;2.15;;
966;SDS011;56108;48.730;9.304;2024-02-26T11:41:12;2.75;;;2.13;;
966;SDS011;56108;48.730;9.304;2024-02-26T11:43:22;3.95;;;2.22;;
966;SDS011;56108;48.730;9.304;2024-02-26T11:48:04;1.88;;;1.75;;
966;SDS011;56108;48.730;9.304;2024-02-26T11:52:46;4.63;;;2.33;;
966;SDS011;56108;48.730;9.304;2024-02-26T11:55:31;2.40;;;2.20;;
966;SDS011;56108;48.730;9.304;2024-02-26T11:57:39;2.20;;;2.00;;
966;SDS011;56108;48.730;9.304;2024-02-26T11:59:48;2.75;;;2.13;;
966;SDS011;56108;48.730;9.304;2024-02-26T12:01:57;2.08;;;1.90;;
966;SDS011;56108;48.730;9.304;2024-02-26T12:04:07;2.05;;;1.85;;
966;SDS011;56108;48.730;9.304;2024-02-26T12:06:16;3.35;;;1.75;;
966;SDS011;56108;48.730;9.304;2024-02-26T12:08:24;3.10;;;2.05;;
966;SDS011;56108;48.730;9.304;2024-02-26T12:10:35;3.35;;;2.30;;
966;SDS011;56108;48.730;9.304;2024-02-26T12:12:45;2.55;;;2.00;;
966;SDS011;56108;48.730;9.304;2024-02-26T12:14:51;1.73;;;1.63;;
966;SDS011;56108;48.730;9.304;2024-02-26T12:17:02;2.97;;;1.83;;
966;SDS011;56108;48.730;9.304;2024-02-26T12:19:12;2.38;;;2.17;;
966;SDS011;56108;48.730;9.304;2024-02-26T12:21:20;2.22;;;2.03;;
966;SDS011;56108;48.730;9.304;2024-02-26T12:23:28;1.83;;;1.73;;
966;SDS011;56108;48.730;9.304;2024-02-26T12:25:37;1.98;;;1.88;;
966;SDS011;56108;48.730;9.304;2024-02-26T12:27:46;1.60;;;1.50;;
966;SDS011;56108;48.730;9.304;2024-02-26T12:29:54;2.38;;;1.90;;
966;SDS011;56108;48.730;9.304;2024-02-26T12:32:05;2.45;;;2.20;;
966;SDS011;56108;48.730;9.304;2024-02-26T12:34:15;5.40;;;2.20;;
966;SDS011;56108;48.730;9.304;2024-02-26T12:36:24;2.28;;;1.88;;
966;SDS011;56108;48.730;9.304;2024-02-26T12:38:32;1.80;;;1.70;;
966;SDS011;56108;48.730;9.304;2024-02-26T12:40:42;2.03;;;1.50;;
966;SDS011;56108;48.730;9.304;2024-02-26T12:42:50;2.25;;;1.98;;
966;SDS011;56108;48.730;9.304;2024-02-26T12:44:59;2.15;;;1.60;;
966;SDS011;56108;48.730;9.304;2024-02-26T12:47:10;1.75;;;1.65;;
966;SDS011;56108;48.730;9.304;2024-02-26T12:49:21;1.95;;;1.35;;
966;SDS011;56108;48.730;9.304;2024-02-26T12:51:30;2.08;;;1.88;;
966;SDS011;56108;48.730;9.304;2024-02-26T12:53:38;1.88;;;1.77;;
966;SDS011;56108;48.730;9.304;2024-02-26T12:55:46;1.67;;;1.58;;
966;SDS011;56108;48.730;9.304;2024-02-26T12:57:55;2.30;;;1.88;;
966;SDS011;56108;48.730;9.304;2024-02-26T13:00:04;3.60;;;2.08;;
966;SDS011;56108;48.730;9.304;2024-02-26T13:02:17;1.90;;;1.80;;
966;SDS011;56108;48.730;9.304;2024-02-26T13:04:25;1.95;;;1.80;;
966;SDS011;56108;48.730;9.304;2024-02-26T13:06:35;2.30;;;2.10;;
966;SDS011;56108;48.730;9.304;2024-02-26T13:08:44;2.33;;;2.10;;
966;SDS011;56108;48.730;9.304;2024-02-26T13:10:52;3.10;;;2.45;;
966;SDS011;56108;48.730;9.304;2024-02-26T13:13:01;3.45;;;1.73;;
966;SDS011;56108;48.730;9.304;2024-02-26T13:15:13;3.05;;;2.33;;
966;SDS011;56108;48.730;9.304;2024-02-26T13:17:25;3.20;;;2.58;;
966;SDS011;56108;48.730;9.304;2024-02-26T13:19:33;1.88;;;1.05;;
966;SDS011;56108;48.730;9.304;2024-02-26T13:21:44;2.00;;;1.35;;
966;SDS011;56108;48.730;9.304;2024-02-26T13:23:52;4.10;;;1.52;;
966;SDS011;56108;48.730;9.304;2024-02-26T13:26:00;1.70;;;1.60;;